sensor_id;sensor_type;location;lat;lon;timestamp;temperature;humidity
16198;DHT22;8206;51.440;6.914;2022-10-31T00:01:20;15.00;1.00
16198;DHT22;8206;51.440;6.914;2022-10-31T00:03:47;15.00;1.00
16198;DHT22;8206;51.440;6.914;2022-10-31T00:06:16;14.90;1.00
16198;DHT22;8206;51.440;6.914;2022-10-31T00:08:44;14.90;1.00
16198;DHT22;8206;51.440;6.914;2022-10-31T00:11:11;14.70;1.00
16198;DHT22;8206;51.440;6.914;2022-10-31T00:13:37;14.60;1.00
16198;DHT22;8206;51.440;6.914;2022-10-31T00:16:05;14.50;1.00
16198;DHT22;8206;51.440;6.914;2022-10-31T00:18:32;14.40;1.00
16198;DHT22;8206;51.440;6.914;2022-10-31T00:20:59;14.30;1.00
16198;DHT22;8206;51.440;6.914;2022-10-31T00:23:28;14.30;1.00
16198;DHT22;8206;51.440;6.914;2022-10-31T00:25:59;14.20;1.00
16198;DHT22;8206;51.440;6.914;2022-10-31T00:28:26;14.10;1.00
16198;DHT22;8206;51.440;6.914;2022-10-31T00:30:52;14.00;1.00
16198;DHT22;8206;51.440;6.914;2022-10-31T00:33:19;14.00;1.00
16198;DHT22;8206;51.440;6.914;2022-10-31T00:35:49;13.90;1.00
16198;DHT22;8206;51.440;6.914;2022-10-31T00:38:16;13.90;1.00
16198;DHT22;8206;51.440;6.914;2022-10-31T00:40:44;13.90;1.00
16198;DHT22;8206;51.440;6.914;2022-10-31T00:43:11;14.00;1.00
16198;DHT22;8206;51.440;6.914;2022-10-31T00:45:38;14.00;1.00
16198;DHT22;8206;51.440;6.914;2022-10-31T00:48:05;14.00;1.00
16198;DHT22;8206;51.440;6.914;2022-10-31T00:50:32;14.10;1.00
16198;DHT22;8206;51.440;6.914;2022-10-31T00:52:59;14.10;1.00
16198;DHT22;8206;51.440;6.914;2022-10-31T00:55:25;14.00;1.00
16198;DHT22;8206;51.440;6.914;2022-10-31T00:57:53;14.10;1.00
16198;DHT22;8206;51.440;6.914;2022-10-31T01:00:20;14.00;1.00
16198;DHT22;8206;51.440;6.914;2022-10-31T01:02:47;14.00;1.00
16198;DHT22;8206;51.440;6.914;2022-10-31T01:05:14;14.00;1.00
16198;DHT22;8206;51.440;6.914;2022-10-31T01:07:41;14.00;1.00
16198;DHT22;8206;51.440;6.914;2022-10-31T01:10:09;14.00;1.00
16198;DHT22;8206;51.440;6.914;2022-10-31T01:12:36;14.00;1.00
16198;DHT22;8206;51.440;6.914;2022-10-31T01:15:06;14.00;1.00
16198;DHT22;8206;51.440;6.914;2022-10-31T01:17:33;14.00;1.00
16198;DHT22;8206;51.440;6.914;2022-10-31T01:19:59;14.00;1.00
16198;DHT22;8206;51.440;6.914;2022-10-31T01:22:26;14.00;1.00
16198;DHT22;8206;51.440;6.914;2022-10-31T01:24:53;14.00;1.00
16198;DHT22;8206;51.440;6.914;2022-10-31T01:27:20;13.90;1.00
16198;DHT22;8206;51.440;6.914;2022-10-31T01:29:46;13.90;1.00
16198;DHT22;8206;51.440;6.914;2022-10-31T01:32:14;13.90;1.00
16198;DHT22;8206;51.440;6.914;2022-10-31T01:34:41;14.00;1.00
16198;DHT22;8206;51.440;6.914;2022-10-31T01:37:08;14.00;1.00
16198;DHT22;8206;51.440;6.914;2022-10-31T01:39:35;14.00;1.00
16198;DHT22;8206;51.440;6.914;2022-10-31T01:42:02;13.90;1.00
16198;DHT22;8206;51.440;6.914;2022-10-31T01:44:51;13.90;1.00
16198;DHT22;8206;51.440;6.914;2022-10-31T01:47:33;13.80;1.00
16198;DHT22;8206;51.440;6.914;2022-10-31T01:50:06;13.70;1.00
16198;DHT22;8206;51.440;6.914;2022-10-31T01:52:38;13.60;1.00
16198;DHT22;8206;51.440;6.914;2022-10-31T01:55:08;13.60;1.00
16198;DHT22;8206;51.440;6.914;2022-10-31T01:57:37;13.50;18.00
16198;DHT22;8206;51.440;6.914;2022-10-31T02:00:08;13.50;59.40
16198;DHT22;8206;51.440;6.914;2022-10-31T02:02:36;13.50;59.40
16198;DHT22;8206;51.440;6.914;2022-10-31T02:05:06;13.40;54.60
16198;DHT22;8206;51.440;6.914;2022-10-31T02:07:37;13.40;92.30
16198;DHT22;8206;51.440;6.914;2022-10-31T02:10:05;13.40;99.90
16198;DHT22;8206;51.440;6.914;2022-10-31T02:12:32;13.40;98.50
16198;DHT22;8206;51.440;6.914;2022-10-31T02:15:01;13.40;99.90
16198;DHT22;8206;51.440;6.914;2022-10-31T02:17:29;13.40;99.90
16198;DHT22;8206;51.440;6.914;2022-10-31T02:20:06;13.30;99.90
16198;DHT22;8206;51.440;6.914;2022-10-31T02:22:43;13.20;99.90
16198;DHT22;8206;51.440;6.914;2022-10-31T02:25:28;13.10;99.90
16198;DHT22;8206;51.440;6.914;2022-10-31T02:28:23;13.00;99.90
16198;DHT22;8206;51.440;6.914;2022-10-31T02:31:03;13.00;99.90
16198;DHT22;8206;51.440;6.914;2022-10-31T02:33:41;13.00;99.90
16198;DHT22;8206;51.440;6.914;2022-10-31T02:36:12;13.00;99.90
16198;DHT22;8206;51.440;6.914;2022-10-31T02:38:51;13.00;99.90
16198;DHT22;8206;51.440;6.914;2022-10-31T02:41:32;13.00;99.90
16198;DHT22;8206;51.440;6.914;2022-10-31T02:44:06;12.90;99.90
16198;DHT22;8206;51.440;6.914;2022-10-31T02:46:39;12.90;99.90
16198;DHT22;8206;51.440;6.914;2022-10-31T02:49:13;12.90;99.90
16198;DHT22;8206;51.440;6.914;2022-10-31T02:51:43;12.90;99.90
16198;DHT22;8206;51.440;6.914;2022-10-31T02:54:18;12.90;99.90
16198;DHT22;8206;51.440;6.914;2022-10-31T02:56:46;12.90;99.90
16198;DHT22;8206;51.440;6.914;2022-10-31T02:59:14;12.90;99.90
16198;DHT22;8206;51.440;6.914;2022-10-31T03:02:19;12.90;98.70
16198;DHT22;8206;51.440;6.914;2022-10-31T03:04:59;12.80;99.90
16198;DHT22;8206;51.440;6.914;2022-10-31T03:07:35;12.80;99.90
16198;DHT22;8206;51.440;6.914;2022-10-31T03:10:13;12.80;99.90
16198;DHT22;8206;51.440;6.914;2022-10-31T03:12:46;12.80;99.90
16198;DHT22;8206;51.440;6.914;2022-10-31T03:15:19;12.80;98.10
16198;DHT22;8206;51.440;6.914;2022-10-31T03:17:55;12.70;99.90
16198;DHT22;8206;51.440;6.914;2022-10-31T03:20:27;12.70;99.90
16198;DHT22;8206;51.440;6.914;2022-10-31T03:22:57;12.60;99.90
16198;DHT22;8206;51.440;6.914;2022-10-31T03:25:25;12.60;99.90
16198;DHT22;8206;51.440;6.914;2022-10-31T03:27:52;12.60;99.90
16198;DHT22;8206;51.440;6.914;2022-10-31T03:30:20;12.50;1.00
16198;DHT22;8206;51.440;6.914;2022-10-31T03:32:51;12.40;1.00
16198;DHT22;8206;51.440;6.914;2022-10-31T03:35:21;12.40;1.00
16198;DHT22;8206;51.440;6.914;2022-10-31T03:37:49;12.40;1.00
16198;DHT22;8206;51.440;6.914;2022-10-31T03:40:19;12.40;3.10
16198;DHT22;8206;51.440;6.914;2022-10-31T03:42:53;12.40;1.00
16198;DHT22;8206;51.440;6.914;2022-10-31T03:45:24;12.30;27.90
16198;DHT22;8206;51.440;6.914;2022-10-31T03:47:53;12.30;1.00
16198;DHT22;8206;51.440;6.914;2022-10-31T03:50:21;12.30;1.00
16198;DHT22;8206;51.440;6.914;2022-10-31T03:52:56;12.30;1.00
16198;DHT22;8206;51.440;6.914;2022-10-31T03:55:28;12.20;1.00
16198;DHT22;8206;51.440;6.914;2022-10-31T03:57:59;12.20;1.00
16198;DHT22;8206;51.440;6.914;2022-10-31T04:00:26;12.20;1.00
16198;DHT22;8206;51.440;6.914;2022-10-31T04:02:59;12.10;99.90
16198;DHT22;8206;51.440;6.914;2022-10-31T04:05:28;12.10;99.40
16198;DHT22;8206;51.440;6.914;2022-10-31T04:07:57;12.20;99.90
16198;DHT22;8206;51.440;6.914;2022-10-31T04:10:26;12.20;7.40
16198;DHT22;8206;51.440;6.914;2022-10-31T04:12:57;12.20;1.00
16198;DHT22;8206;51.440;6.914;2022-10-31T04:15:26;12.20;1.00
16198;DHT22;8206;51.440;6.914;2022-10-31T04:17:58;12.30;1.00
16198;DHT22;8206;51.440;6.914;2022-10-31T04:20:33;12.30;1.00
16198;DHT22;8206;51.440;6.914;2022-10-31T04:23:00;12.40;99.90
16198;DHT22;8206;51.440;6.914;2022-10-31T04:25:27;12.40;99.90
16198;DHT22;8206;51.440;6.914;2022-10-31T04:27:54;12.50;99.90
16198;DHT22;8206;51.440;6.914;2022-10-31T04:30:21;12.40;99.90
16198;DHT22;8206;51.440;6.914;2022-10-31T04:32:48;12.50;99.90
16198;DHT22;8206;51.440;6.914;2022-10-31T04:35:16;12.40;99.90
16198;DHT22;8206;51.440;6.914;2022-10-31T04:37:42;12.40;99.90
16198;DHT22;8206;51.440;6.914;2022-10-31T04:40:10;12.40;99.90
16198;DHT22;8206;51.440;6.914;2022-10-31T04:42:37;12.30;99.90
16198;DHT22;8206;51.440;6.914;2022-10-31T04:45:05;12.30;99.90
16198;DHT22;8206;51.440;6.914;2022-10-31T04:47:32;12.40;99.90
16198;DHT22;8206;51.440;6.914;2022-10-31T04:49:59;12.30;99.90
16198;DHT22;8206;51.440;6.914;2022-10-31T04:52:27;12.30;99.90
16198;DHT22;8206;51.440;6.914;2022-10-31T04:54:54;12.40;99.90
16198;DHT22;8206;51.440;6.914;2022-10-31T04:57:20;12.40;99.90
16198;DHT22;8206;51.440;6.914;2022-10-31T04:59:47;12.40;99.90
16198;DHT22;8206;51.440;6.914;2022-10-31T05:02:14;12.50;99.90
16198;DHT22;8206;51.440;6.914;2022-10-31T05:04:41;12.50;99.90
16198;DHT22;8206;51.440;6.914;2022-10-31T05:07:07;12.40;99.90
16198;DHT22;8206;51.440;6.914;2022-10-31T05:09:35;12.30;99.90
16198;DHT22;8206;51.440;6.914;2022-10-31T05:12:02;12.30;99.90
16198;DHT22;8206;51.440;6.914;2022-10-31T05:14:29;12.20;99.90
16198;DHT22;8206;51.440;6.914;2022-10-31T05:16:56;12.20;99.90
16198;DHT22;8206;51.440;6.914;2022-10-31T05:19:23;12.20;1.00
16198;DHT22;8206;51.440;6.914;2022-10-31T05:21:49;12.10;1.00
16198;DHT22;8206;51.440;6.914;2022-10-31T05:24:16;12.10;1.00
16198;DHT22;8206;51.440;6.914;2022-10-31T05:26:44;12.10;1.00
16198;DHT22;8206;51.440;6.914;2022-10-31T05:29:11;12.00;1.00
16198;DHT22;8206;51.440;6.914;2022-10-31T05:31:38;12.00;1.00
16198;DHT22;8206;51.440;6.914;2022-10-31T05:34:04;12.00;1.00
16198;DHT22;8206;51.440;6.914;2022-10-31T05:36:31;12.00;1.00
16198;DHT22;8206;51.440;6.914;2022-10-31T05:38:58;12.00;1.00
16198;DHT22;8206;51.440;6.914;2022-10-31T05:41:25;12.00;1.00
16198;DHT22;8206;51.440;6.914;2022-10-31T05:43:53;12.00;29.80
16198;DHT22;8206;51.440;6.914;2022-10-31T05:46:19;12.10;70.80
16198;DHT22;8206;51.440;6.914;2022-10-31T05:48:46;12.00;99.90
16198;DHT22;8206;51.440;6.914;2022-10-31T05:51:13;12.10;1.00
16198;DHT22;8206;51.440;6.914;2022-10-31T05:53:39;12.10;1.00
16198;DHT22;8206;51.440;6.914;2022-10-31T05:56:06;12.10;1.00
16198;DHT22;8206;51.440;6.914;2022-10-31T05:58:33;12.10;51.10
16198;DHT22;8206;51.440;6.914;2022-10-31T06:01:01;12.10;99.90
16198;DHT22;8206;51.440;6.914;2022-10-31T06:03:28;12.20;25.80
16198;DHT22;8206;51.440;6.914;2022-10-31T06:05:55;12.20;1.00
16198;DHT22;8206;51.440;6.914;2022-10-31T06:08:21;12.20;1.00
16198;DHT22;8206;51.440;6.914;2022-10-31T06:10:48;12.20;1.00
16198;DHT22;8206;51.440;6.914;2022-10-31T06:13:15;12.20;1.00
16198;DHT22;8206;51.440;6.914;2022-10-31T06:15:42;12.20;1.00
16198;DHT22;8206;51.440;6.914;2022-10-31T06:18:10;12.10;1.00
16198;DHT22;8206;51.440;6.914;2022-10-31T06:20:37;12.20;1.00
16198;DHT22;8206;51.440;6.914;2022-10-31T06:23:04;12.20;1.00
16198;DHT22;8206;51.440;6.914;2022-10-31T06:25:31;12.10;1.00
16198;DHT22;8206;51.440;6.914;2022-10-31T06:27:59;12.10;1.00
16198;DHT22;8206;51.440;6.914;2022-10-31T06:30:26;12.10;1.00
16198;DHT22;8206;51.440;6.914;2022-10-31T06:32:53;12.10;1.00
16198;DHT22;8206;51.440;6.914;2022-10-31T06:35:21;12.10;1.00
16198;DHT22;8206;51.440;6.914;2022-10-31T06:37:51;12.10;1.00
16198;DHT22;8206;51.440;6.914;2022-10-31T06:40:18;12.10;1.00
16198;DHT22;8206;51.440;6.914;2022-10-31T06:42:45;12.10;1.00
16198;DHT22;8206;51.440;6.914;2022-10-31T06:45:12;12.20;1.00
16198;DHT22;8206;51.440;6.914;2022-10-31T06:47:38;12.20;1.00
16198;DHT22;8206;51.440;6.914;2022-10-31T06:50:06;12.30;1.00
16198;DHT22;8206;51.440;6.914;2022-10-31T06:52:34;12.30;1.00
16198;DHT22;8206;51.440;6.914;2022-10-31T06:55:01;12.40;1.00
16198;DHT22;8206;51.440;6.914;2022-10-31T06:57:28;12.40;1.00
16198;DHT22;8206;51.440;6.914;2022-10-31T06:59:54;12.40;99.90
16198;DHT22;8206;51.440;6.914;2022-10-31T07:02:21;12.50;99.90
16198;DHT22;8206;51.440;6.914;2022-10-31T07:04:48;12.50;99.90
16198;DHT22;8206;51.440;6.914;2022-10-31T07:07:14;12.60;99.90
16198;DHT22;8206;51.440;6.914;2022-10-31T07:09:42;12.60;99.90
16198;DHT22;8206;51.440;6.914;2022-10-31T07:12:09;12.70;99.90
16198;DHT22;8206;51.440;6.914;2022-10-31T07:14:36;12.70;99.90
16198;DHT22;8206;51.440;6.914;2022-10-31T07:17:03;12.70;99.90
16198;DHT22;8206;51.440;6.914;2022-10-31T07:19:29;12.70;99.90
16198;DHT22;8206;51.440;6.914;2022-10-31T07:21:56;12.80;99.90
16198;DHT22;8206;51.440;6.914;2022-10-31T07:24:23;12.80;99.90
16198;DHT22;8206;51.440;6.914;2022-10-31T07:26:51;12.80;99.90
16198;DHT22;8206;51.440;6.914;2022-10-31T07:29:18;12.80;99.90
16198;DHT22;8206;51.440;6.914;2022-10-31T07:31:45;12.80;99.90
16198;DHT22;8206;51.440;6.914;2022-10-31T07:34:12;12.90;99.90
16198;DHT22;8206;51.440;6.914;2022-10-31T07:36:39;12.90;99.90
16198;DHT22;8206;51.440;6.914;2022-10-31T07:39:05;12.90;99.90
16198;DHT22;8206;51.440;6.914;2022-10-31T07:41:32;13.00;99.90
16198;DHT22;8206;51.440;6.914;2022-10-31T07:44:00;13.00;97.70
16198;DHT22;8206;51.440;6.914;2022-10-31T07:46:27;13.00;99.90
16198;DHT22;8206;51.440;6.914;2022-10-31T07:48:54;13.10;99.90
16198;DHT22;8206;51.440;6.914;2022-10-31T07:51:20;13.10;99.90
16198;DHT22;8206;51.440;6.914;2022-10-31T07:53:48;13.10;71.40
16198;DHT22;8206;51.440;6.914;2022-10-31T07:56:15;13.20;48.10
16198;DHT22;8206;51.440;6.914;2022-10-31T07:58:42;13.20;30.80
16198;DHT22;8206;51.440;6.914;2022-10-31T08:01:10;13.30;10.80
16198;DHT22;8206;51.440;6.914;2022-10-31T08:03:37;13.40;1.00
16198;DHT22;8206;51.440;6.914;2022-10-31T08:06:04;13.40;1.00
16198;DHT22;8206;51.440;6.914;2022-10-31T08:08:30;13.40;1.00
16198;DHT22;8206;51.440;6.914;2022-10-31T08:10:58;13.50;1.00
16198;DHT22;8206;51.440;6.914;2022-10-31T08:13:24;13.60;1.00
16198;DHT22;8206;51.440;6.914;2022-10-31T08:15:51;13.60;1.00
16198;DHT22;8206;51.440;6.914;2022-10-31T08:18:20;13.70;1.00
16198;DHT22;8206;51.440;6.914;2022-10-31T08:20:49;13.70;1.00
16198;DHT22;8206;51.440;6.914;2022-10-31T08:23:16;13.80;1.00
16198;DHT22;8206;51.440;6.914;2022-10-31T08:25:42;13.90;1.00
16198;DHT22;8206;51.440;6.914;2022-10-31T08:28:11;14.00;1.00
16198;DHT22;8206;51.440;6.914;2022-10-31T08:30:39;14.10;1.00
16198;DHT22;8206;51.440;6.914;2022-10-31T08:33:09;14.20;1.00
16198;DHT22;8206;51.440;6.914;2022-10-31T08:35:38;14.30;1.00
16198;DHT22;8206;51.440;6.914;2022-10-31T08:38:05;14.30;1.00
16198;DHT22;8206;51.440;6.914;2022-10-31T08:40:33;14.40;1.00
16198;DHT22;8206;51.440;6.914;2022-10-31T08:43:03;14.50;1.00
16198;DHT22;8206;51.440;6.914;2022-10-31T08:45:31;14.60;1.00
16198;DHT22;8206;51.440;6.914;2022-10-31T08:47:59;14.70;1.00
16198;DHT22;8206;51.440;6.914;2022-10-31T08:50:27;14.80;1.00
16198;DHT22;8206;51.440;6.914;2022-10-31T08:52:59;14.90;1.00
16198;DHT22;8206;51.440;6.914;2022-10-31T08:55:26;15.00;1.00
16198;DHT22;8206;51.440;6.914;2022-10-31T08:57:54;15.00;1.00
16198;DHT22;8206;51.440;6.914;2022-10-31T09:00:22;15.10;1.00
16198;DHT22;8206;51.440;6.914;2022-10-31T09:02:55;15.20;1.00
16198;DHT22;8206;51.440;6.914;2022-10-31T09:05:21;15.20;1.00
16198;DHT22;8206;51.440;6.914;2022-10-31T09:07:48;15.20;1.00
16198;DHT22;8206;51.440;6.914;2022-10-31T09:10:16;15.30;1.00
16198;DHT22;8206;51.440;6.914;2022-10-31T09:12:43;15.30;1.00
16198;DHT22;8206;51.440;6.914;2022-10-31T09:15:10;15.40;1.00
16198;DHT22;8206;51.440;6.914;2022-10-31T09:17:36;15.40;1.00
16198;DHT22;8206;51.440;6.914;2022-10-31T09:20:04;15.50;1.00
16198;DHT22;8206;51.440;6.914;2022-10-31T09:22:30;15.50;1.00
16198;DHT22;8206;51.440;6.914;2022-10-31T09:24:57;15.50;1.00
16198;DHT22;8206;51.440;6.914;2022-10-31T09:27:25;15.60;1.00
16198;DHT22;8206;51.440;6.914;2022-10-31T09:29:52;15.60;1.00
16198;DHT22;8206;51.440;6.914;2022-10-31T09:32:18;15.60;1.00
16198;DHT22;8206;51.440;6.914;2022-10-31T09:34:45;15.60;1.00
16198;DHT22;8206;51.440;6.914;2022-10-31T09:37:12;15.70;1.00
16198;DHT22;8206;51.440;6.914;2022-10-31T09:39:39;15.80;1.00
16198;DHT22;8206;51.440;6.914;2022-10-31T09:42:21;15.90;1.00
16198;DHT22;8206;51.440;6.914;2022-10-31T09:45:00;16.10;1.00
16198;DHT22;8206;51.440;6.914;2022-10-31T09:47:39;16.20;1.00
16198;DHT22;8206;51.440;6.914;2022-10-31T09:50:15;16.40;1.00
16198;DHT22;8206;51.440;6.914;2022-10-31T09:52:51;16.50;1.00
16198;DHT22;8206;51.440;6.914;2022-10-31T09:55:26;16.60;1.00
16198;DHT22;8206;51.440;6.914;2022-10-31T09:57:56;16.80;1.00
16198;DHT22;8206;51.440;6.914;2022-10-31T10:00:26;16.80;1.00
16198;DHT22;8206;51.440;6.914;2022-10-31T10:02:56;16.80;1.00
16198;DHT22;8206;51.440;6.914;2022-10-31T10:05:28;16.90;1.00
16198;DHT22;8206;51.440;6.914;2022-10-31T10:08:01;17.00;1.00
16198;DHT22;8206;51.440;6.914;2022-10-31T10:10:39;17.10;1.00
16198;DHT22;8206;51.440;6.914;2022-10-31T10:13:27;17.20;1.00
16198;DHT22;8206;51.440;6.914;2022-10-31T10:16:08;17.50;1.00
16198;DHT22;8206;51.440;6.914;2022-10-31T10:18:44;17.70;1.00
16198;DHT22;8206;51.440;6.914;2022-10-31T10:21:22;17.90;1.00
16198;DHT22;8206;51.440;6.914;2022-10-31T10:23:58;18.00;1.00
16198;DHT22;8206;51.440;6.914;2022-10-31T10:26:31;18.00;1.00
16198;DHT22;8206;51.440;6.914;2022-10-31T10:29:04;18.10;1.00
16198;DHT22;8206;51.440;6.914;2022-10-31T10:31:40;18.10;1.00
16198;DHT22;8206;51.440;6.914;2022-10-31T10:34:20;18.10;1.00
16198;DHT22;8206;51.440;6.914;2022-10-31T10:36:52;18.00;1.00
16198;DHT22;8206;51.440;6.914;2022-10-31T10:39:22;17.90;1.00
16198;DHT22;8206;51.440;6.914;2022-10-31T10:41:50;17.90;1.00
16198;DHT22;8206;51.440;6.914;2022-10-31T10:44:37;18.00;1.00
16198;DHT22;8206;51.440;6.914;2022-10-31T10:47:26;18.20;1.00
16198;DHT22;8206;51.440;6.914;2022-10-31T10:50:11;18.30;1.00
16198;DHT22;8206;51.440;6.914;2022-10-31T10:52:43;18.40;1.00
16198;DHT22;8206;51.440;6.914;2022-10-31T10:55:18;18.40;1.00
16198;DHT22;8206;51.440;6.914;2022-10-31T10:57:55;18.40;1.00
16198;DHT22;8206;51.440;6.914;2022-10-31T11:00:24;18.40;1.00
16198;DHT22;8206;51.440;6.914;2022-10-31T11:02:52;18.50;1.00
16198;DHT22;8206;51.440;6.914;2022-10-31T11:05:26;18.60;1.00
16198;DHT22;8206;51.440;6.914;2022-10-31T11:07:54;18.60;1.00
16198;DHT22;8206;51.440;6.914;2022-10-31T11:10:21;18.70;1.00
16198;DHT22;8206;51.440;6.914;2022-10-31T11:13:00;18.70;1.00
16198;DHT22;8206;51.440;6.914;2022-10-31T11:15:31;18.70;1.00
16198;DHT22;8206;51.440;6.914;2022-10-31T11:18:01;18.80;1.00
16198;DHT22;8206;51.440;6.914;2022-10-31T11:20:31;18.70;1.00
16198;DHT22;8206;51.440;6.914;2022-10-31T11:23:10;18.60;1.00
16198;DHT22;8206;51.440;6.914;2022-10-31T11:25:48;18.70;1.00
16198;DHT22;8206;51.440;6.914;2022-10-31T11:28:16;18.70;1.00
16198;DHT22;8206;51.440;6.914;2022-10-31T11:30:45;18.70;1.00
16198;DHT22;8206;51.440;6.914;2022-10-31T11:33:18;18.80;1.00
16198;DHT22;8206;51.440;6.914;2022-10-31T11:35:47;18.90;1.00
16198;DHT22;8206;51.440;6.914;2022-10-31T11:38:18;19.10;1.00
16198;DHT22;8206;51.440;6.914;2022-10-31T11:40:53;19.20;1.00
16198;DHT22;8206;51.440;6.914;2022-10-31T11:43:22;19.40;1.00
16198;DHT22;8206;51.440;6.914;2022-10-31T11:45:49;19.60;1.00
16198;DHT22;8206;51.440;6.914;2022-10-31T11:48:19;19.50;1.00
16198;DHT22;8206;51.440;6.914;2022-10-31T11:50:51;19.50;1.00
16198;DHT22;8206;51.440;6.914;2022-10-31T11:53:22;19.40;1.00
16198;DHT22;8206;51.440;6.914;2022-10-31T11:56:05;19.40;1.00
16198;DHT22;8206;51.440;6.914;2022-10-31T11:58:32;19.40;1.00
16198;DHT22;8206;51.440;6.914;2022-10-31T12:00:59;19.40;1.00
16198;DHT22;8206;51.440;6.914;2022-10-31T12:03:40;19.50;1.00
16198;DHT22;8206;51.440;6.914;2022-10-31T12:06:12;19.50;1.00
16198;DHT22;8206;51.440;6.914;2022-10-31T12:08:41;19.60;1.00
16198;DHT22;8206;51.440;6.914;2022-10-31T12:11:17;19.60;1.00
16198;DHT22;8206;51.440;6.914;2022-10-31T12:14:01;19.60;1.00
16198;DHT22;8206;51.440;6.914;2022-10-31T12:16:36;19.70;1.00
16198;DHT22;8206;51.440;6.914;2022-10-31T12:19:11;19.60;1.00
16198;DHT22;8206;51.440;6.914;2022-10-31T12:21:50;19.60;1.00
16198;DHT22;8206;51.440;6.914;2022-10-31T12:24:33;19.60;1.00
16198;DHT22;8206;51.440;6.914;2022-10-31T12:27:08;19.70;1.00
16198;DHT22;8206;51.440;6.914;2022-10-31T12:29:49;19.70;1.00
16198;DHT22;8206;51.440;6.914;2022-10-31T12:32:31;19.80;1.00
16198;DHT22;8206;51.440;6.914;2022-10-31T12:35:18;19.90;1.00
16198;DHT22;8206;51.440;6.914;2022-10-31T12:38:05;20.00;1.00
16198;DHT22;8206;51.440;6.914;2022-10-31T12:40:43;20.10;1.00
16198;DHT22;8206;51.440;6.914;2022-10-31T12:43:24;20.10;1.00
16198;DHT22;8206;51.440;6.914;2022-10-31T12:45:56;20.30;1.00
16198;DHT22;8206;51.440;6.914;2022-10-31T12:48:56;20.30;1.00
16198;DHT22;8206;51.440;6.914;2022-10-31T12:51:33;20.30;1.00
16198;DHT22;8206;51.440;6.914;2022-10-31T12:54:15;20.40;1.00
16198;DHT22;8206;51.440;6.914;2022-10-31T12:56:52;20.30;1.00
16198;DHT22;8206;51.440;6.914;2022-10-31T12:59:26;20.20;1.00
16198;DHT22;8206;51.440;6.914;2022-10-31T13:01:59;20.20;1.00
16198;DHT22;8206;51.440;6.914;2022-10-31T13:04:36;20.20;1.00
16198;DHT22;8206;51.440;6.914;2022-10-31T13:07:09;20.20;1.00
16198;DHT22;8206;51.440;6.914;2022-10-31T13:09:41;20.20;1.00
16198;DHT22;8206;51.440;6.914;2022-10-31T13:12:12;20.20;1.00
16198;DHT22;8206;51.440;6.914;2022-10-31T13:14:43;20.30;1.00
16198;DHT22;8206;51.440;6.914;2022-10-31T13:17:18;20.30;1.00
16198;DHT22;8206;51.440;6.914;2022-10-31T13:19:48;20.30;1.00
16198;DHT22;8206;51.440;6.914;2022-10-31T13:22:22;20.30;1.00
16198;DHT22;8206;51.440;6.914;2022-10-31T13:24:55;20.30;1.00
16198;DHT22;8206;51.440;6.914;2022-10-31T13:27:25;20.20;1.00
16198;DHT22;8206;51.440;6.914;2022-10-31T13:29:59;20.20;1.00
16198;DHT22;8206;51.440;6.914;2022-10-31T13:32:28;20.20;1.00
16198;DHT22;8206;51.440;6.914;2022-10-31T13:34:58;20.20;1.00
16198;DHT22;8206;51.440;6.914;2022-10-31T13:37:34;20.30;1.00
16198;DHT22;8206;51.440;6.914;2022-10-31T13:40:14;20.30;1.00
16198;DHT22;8206;51.440;6.914;2022-10-31T13:42:52;20.40;1.00
16198;DHT22;8206;51.440;6.914;2022-10-31T13:45:22;20.40;1.00
16198;DHT22;8206;51.440;6.914;2022-10-31T13:47:57;20.40;1.00
16198;DHT22;8206;51.440;6.914;2022-10-31T13:50:26;20.50;1.00
16198;DHT22;8206;51.440;6.914;2022-10-31T13:53:10;20.40;1.00
16198;DHT22;8206;51.440;6.914;2022-10-31T13:55:40;20.30;1.00
16198;DHT22;8206;51.440;6.914;2022-10-31T13:58:22;20.30;1.00
16198;DHT22;8206;51.440;6.914;2022-10-31T14:01:13;20.30;1.00
16198;DHT22;8206;51.440;6.914;2022-10-31T14:03:43;20.30;1.00
16198;DHT22;8206;51.440;6.914;2022-10-31T14:06:11;20.20;1.00
16198;DHT22;8206;51.440;6.914;2022-10-31T14:08:46;20.20;1.00
16198;DHT22;8206;51.440;6.914;2022-10-31T14:11:21;20.20;1.00
16198;DHT22;8206;51.440;6.914;2022-10-31T14:13:49;20.20;1.00
16198;DHT22;8206;51.440;6.914;2022-10-31T14:16:19;20.20;1.00
16198;DHT22;8206;51.440;6.914;2022-10-31T14:18:51;20.20;1.00
16198;DHT22;8206;51.440;6.914;2022-10-31T14:21:28;20.30;1.00
16198;DHT22;8206;51.440;6.914;2022-10-31T14:23:57;20.30;1.00
16198;DHT22;8206;51.440;6.914;2022-10-31T14:26:33;20.30;1.00
16198;DHT22;8206;51.440;6.914;2022-10-31T14:29:02;20.30;1.00
16198;DHT22;8206;51.440;6.914;2022-10-31T14:31:32;20.30;1.00
16198;DHT22;8206;51.440;6.914;2022-10-31T14:34:04;20.20;1.00
16198;DHT22;8206;51.440;6.914;2022-10-31T14:36:41;20.00;1.00
16198;DHT22;8206;51.440;6.914;2022-10-31T14:39:15;19.90;1.00
16198;DHT22;8206;51.440;6.914;2022-10-31T14:41:53;19.90;1.00
16198;DHT22;8206;51.440;6.914;2022-10-31T14:47:22;19.70;1.00
16198;DHT22;8206;51.440;6.914;2022-10-31T14:50:09;19.70;1.00
16198;DHT22;8206;51.440;6.914;2022-10-31T14:52:40;19.60;1.00
16198;DHT22;8206;51.440;6.914;2022-10-31T14:55:13;19.50;1.00
16198;DHT22;8206;51.440;6.914;2022-10-31T14:57:46;19.50;1.00
16198;DHT22;8206;51.440;6.914;2022-10-31T15:00:18;19.40;1.00
16198;DHT22;8206;51.440;6.914;2022-10-31T15:02:56;19.40;1.00
16198;DHT22;8206;51.440;6.914;2022-10-31T15:05:26;19.40;1.00
16198;DHT22;8206;51.440;6.914;2022-10-31T15:07:55;19.50;1.00
16198;DHT22;8206;51.440;6.914;2022-10-31T15:10:25;19.50;1.00
16198;DHT22;8206;51.440;6.914;2022-10-31T15:12:52;19.50;1.00
16198;DHT22;8206;51.440;6.914;2022-10-31T15:15:21;19.50;1.00
16198;DHT22;8206;51.440;6.914;2022-10-31T15:17:51;19.50;1.00
16198;DHT22;8206;51.440;6.914;2022-10-31T15:20:20;19.50;1.00
16198;DHT22;8206;51.440;6.914;2022-10-31T15:22:49;19.50;1.00
16198;DHT22;8206;51.440;6.914;2022-10-31T15:25:18;19.40;1.00
16198;DHT22;8206;51.440;6.914;2022-10-31T15:27:47;19.40;1.00
16198;DHT22;8206;51.440;6.914;2022-10-31T15:30:20;19.30;1.00
16198;DHT22;8206;51.440;6.914;2022-10-31T15:32:47;19.30;1.00
16198;DHT22;8206;51.440;6.914;2022-10-31T15:35:21;19.30;1.00
16198;DHT22;8206;51.440;6.914;2022-10-31T15:37:49;19.30;1.00
16198;DHT22;8206;51.440;6.914;2022-10-31T15:40:18;19.20;1.00
16198;DHT22;8206;51.440;6.914;2022-10-31T15:42:50;19.10;1.00
16198;DHT22;8206;51.440;6.914;2022-10-31T15:45:19;19.00;1.00
16198;DHT22;8206;51.440;6.914;2022-10-31T15:47:53;18.90;1.00
16198;DHT22;8206;51.440;6.914;2022-10-31T15:50:22;18.70;1.00
16198;DHT22;8206;51.440;6.914;2022-10-31T15:52:50;18.50;1.00
16198;DHT22;8206;51.440;6.914;2022-10-31T15:55:20;18.30;1.00
16198;DHT22;8206;51.440;6.914;2022-10-31T15:57:52;18.20;1.00
16198;DHT22;8206;51.440;6.914;2022-10-31T16:00:27;18.10;1.00
16198;DHT22;8206;51.440;6.914;2022-10-31T16:03:05;18.10;1.00
16198;DHT22;8206;51.440;6.914;2022-10-31T16:05:36;18.00;1.00
16198;DHT22;8206;51.440;6.914;2022-10-31T16:08:03;18.00;1.00
16198;DHT22;8206;51.440;6.914;2022-10-31T16:10:33;17.90;1.00
16198;DHT22;8206;51.440;6.914;2022-10-31T16:13:02;17.80;1.00
16198;DHT22;8206;51.440;6.914;2022-10-31T16:15:29;17.60;1.00
16198;DHT22;8206;51.440;6.914;2022-10-31T16:17:57;17.60;1.00
16198;DHT22;8206;51.440;6.914;2022-10-31T16:20:26;17.60;1.00
16198;DHT22;8206;51.440;6.914;2022-10-31T16:22:55;17.60;1.00